createdAt,value
2023-03-31T00:00:52.876Z,12.80
2023-03-31T00:03:24.391Z,12.80
2023-03-31T00:05:59.332Z,12.90
2023-03-31T00:08:29.980Z,12.90
2023-03-31T00:11:00.867Z,12.80
2023-03-31T00:13:28.719Z,12.60
2023-03-31T00:16:01.499Z,12.70
2023-03-31T00:18:30.031Z,12.80
2023-03-31T00:21:25.552Z,12.80
2023-03-31T00:24:06.870Z,12.70
2023-03-31T00:26:35.112Z,12.80
2023-03-31T00:29:02.581Z,12.70
2023-03-31T00:31:29.825Z,12.60
2023-03-31T00:33:56.835Z,12.70
2023-03-31T00:36:27.447Z,12.60
2023-03-31T00:38:56.436Z,12.60
2023-03-31T00:41:23.677Z,12.50
2023-03-31T00:44:09.374Z,12.50
2023-03-31T00:47:06.444Z,12.50
2023-03-31T00:49:47.218Z,12.50
2023-03-31T00:52:18.013Z,12.50
2023-03-31T00:54:48.816Z,12.40
2023-03-31T00:57:16.634Z,12.40
2023-03-31T00:59:50.342Z,12.40
2023-03-31T01:02:20.807Z,12.50
2023-03-31T01:04:54.839Z,12.60
2023-03-31T01:07:49.572Z,12.50
2023-03-31T01:10:16.776Z,12.50
2023-03-31T01:12:47.649Z,12.50
2023-03-31T01:15:15.723Z,12.50
2023-03-31T01:17:47.516Z,12.40
2023-03-31T01:20:28.166Z,12.40
2023-03-31T01:23:25.494Z,12.40
2023-03-31T01:26:13.789Z,12.40
2023-03-31T01:28:59.924Z,12.40
2023-03-31T01:31:52.841Z,12.40
2023-03-31T01:34:44.919Z,12.40
2023-03-31T01:37:30.727Z,12.40
2023-03-31T01:40:21.734Z,12.40
2023-03-31T01:43:10.413Z,12.30
2023-03-31T01:46:02.293Z,12.20
2023-03-31T01:48:38.468Z,12.20
2023-03-31T01:51:27.599Z,12.20
2023-03-31T01:53:54.632Z,12.20
2023-03-31T01:56:42.928Z,12.20
2023-03-31T01:59:13.087Z,12.20
2023-03-31T02:01:52.400Z,12.30
2023-03-31T02:04:23.746Z,12.30
2023-03-31T02:07:03.778Z,12.20
2023-03-31T02:09:44.942Z,12.30
2023-03-31T02:12:13.541Z,12.30
2023-03-31T02:14:44.857Z,12.30
2023-03-31T02:17:22.555Z,12.40
2023-03-31T02:19:53.049Z,12.40
2023-03-31T02:22:25.504Z,12.30
2023-03-31T02:24:54.798Z,12.30
2023-03-31T02:27:51.754Z,12.20
2023-03-31T02:30:18.693Z,12.20
2023-03-31T02:32:47.180Z,12.20
2023-03-31T02:35:18.077Z,12.00
2023-03-31T02:37:51.154Z,12.10
2023-03-31T02:40:28.925Z,12.00
2023-03-31T02:42:57.197Z,11.90
2023-03-31T02:45:53.714Z,11.90
2023-03-31T02:48:30.965Z,11.70
2023-03-31T02:50:59.599Z,11.60
2023-03-31T02:53:46.258Z,11.60
2023-03-31T02:56:31.110Z,11.60
2023-03-31T02:59:24.828Z,11.60
2023-03-31T03:02:30.591Z,11.50
2023-03-31T03:05:09.560Z,11.60
2023-03-31T03:07:51.083Z,11.50
2023-03-31T03:10:21.226Z,11.60
2023-03-31T03:13:09.850Z,11.40
2023-03-31T03:15:56.415Z,11.50
2023-03-31T03:18:23.376Z,11.50
2023-03-31T03:20:51.070Z,11.50
2023-03-31T03:23:18.105Z,11.50
2023-03-31T03:25:46.176Z,11.50
2023-03-31T03:28:13.107Z,11.40
2023-03-31T03:30:40.232Z,11.30
2023-03-31T03:33:07.196Z,11.30
2023-03-31T03:35:34.780Z,11.20
2023-03-31T03:38:02.032Z,11.10
2023-03-31T03:40:28.857Z,11.10
2023-03-31T03:42:56.427Z,11.20
2023-03-31T03:45:23.552Z,11.30
2023-03-31T03:47:50.541Z,11.40
2023-03-31T03:50:17.764Z,11.30
2023-03-31T03:52:44.829Z,11.20
2023-03-31T03:55:12.286Z,11.30
2023-03-31T03:57:39.421Z,11.20
2023-03-31T04:00:11.020Z,11.30
2023-03-31T04:02:38.725Z,11.20
2023-03-31T04:05:06.194Z,11.10
2023-03-31T04:07:33.203Z,11.00
2023-03-31T04:10:00.314Z,11.00
2023-03-31T04:12:27.134Z,11.20
2023-03-31T04:14:53.987Z,11.20
2023-03-31T04:17:33.075Z,11.30
2023-03-31T04:20:11.681Z,11.20
2023-03-31T04:22:41.485Z,11.20
2023-03-31T04:25:14.998Z,11.20
2023-03-31T04:27:47.011Z,11.30
2023-03-31T04:30:22.841Z,11.40
2023-03-31T04:32:57.943Z,11.50
2023-03-31T04:35:27.043Z,11.40
2023-03-31T04:37:59.145Z,11.50
2023-03-31T04:40:26.274Z,11.50
2023-03-31T04:42:53.323Z,11.50
2023-03-31T04:45:20.286Z,11.60
2023-03-31T04:47:47.322Z,11.60
2023-03-31T04:50:16.962Z,11.60
2023-03-31T04:52:44.344Z,11.70
2023-03-31T04:55:11.397Z,11.70
2023-03-31T04:57:38.217Z,11.70
2023-03-31T05:00:09.267Z,11.70
2023-03-31T05:02:36.186Z,11.80
2023-03-31T05:05:04.562Z,11.80
2023-03-31T05:07:31.625Z,11.80
2023-03-31T05:09:59.676Z,11.80
2023-03-31T05:12:26.875Z,12.00
2023-03-31T05:14:54.437Z,12.00
2023-03-31T05:17:22.400Z,12.00
2023-03-31T05:19:49.567Z,12.20
2023-03-31T05:22:20.594Z,12.10
2023-03-31T05:24:47.962Z,12.20
2023-03-31T05:27:16.406Z,12.30
2023-03-31T05:29:43.994Z,12.40
2023-03-31T05:32:11.079Z,12.50
2023-03-31T05:34:38.070Z,12.40
2023-03-31T05:37:05.424Z,12.50
2023-03-31T05:39:33.160Z,12.50
2023-03-31T05:42:03.518Z,12.40
2023-03-31T05:44:30.603Z,12.40
2023-03-31T05:46:57.666Z,12.40
2023-03-31T05:49:24.589Z,12.40
2023-03-31T05:51:51.882Z,12.50
2023-03-31T05:54:18.848Z,12.50
2023-03-31T05:56:45.895Z,12.50
2023-03-31T05:59:12.775Z,12.60
2023-03-31T06:01:39.778Z,12.50
2023-03-31T06:04:07.086Z,12.50
2023-03-31T06:06:37.198Z,12.50
2023-03-31T06:09:06.477Z,12.60
2023-03-31T06:11:34.920Z,12.60
2023-03-31T06:14:01.945Z,12.70
2023-03-31T06:16:29.537Z,12.70
2023-03-31T06:18:56.803Z,12.60
2023-03-31T06:21:23.999Z,12.60
2023-03-31T06:23:55.190Z,12.60
2023-03-31T06:26:23.093Z,12.60
2023-03-31T06:28:50.410Z,12.70
2023-03-31T06:31:20.832Z,12.70
2023-03-31T06:33:48.217Z,12.70
2023-03-31T06:36:17.834Z,12.70
2023-03-31T06:38:45.398Z,12.70
2023-03-31T06:41:14.355Z,12.60
2023-03-31T06:43:41.690Z,12.50
2023-03-31T06:46:09.476Z,12.60
2023-03-31T06:48:37.183Z,12.60
2023-03-31T06:51:06.266Z,12.60
2023-03-31T06:53:33.801Z,12.70
2023-03-31T06:56:00.752Z,12.70
2023-03-31T06:58:31.173Z,12.70
2023-03-31T07:00:59.098Z,12.80
2023-03-31T07:03:26.468Z,12.80
2023-03-31T07:05:55.043Z,12.80
2023-03-31T07:08:22.980Z,12.80
2023-03-31T07:10:56.107Z,12.70
2023-03-31T07:13:23.403Z,12.70
2023-03-31T07:15:50.822Z,12.70
2023-03-31T07:18:19.181Z,12.70
2023-03-31T07:20:50.449Z,12.80
2023-03-31T07:23:17.709Z,12.90
2023-03-31T07:25:45.528Z,12.90
2023-03-31T07:28:12.639Z,12.80
2023-03-31T07:30:41.349Z,12.80
2023-03-31T07:33:09.249Z,12.80
2023-03-31T07:35:41.421Z,12.80
2023-03-31T07:38:10.194Z,12.80
2023-03-31T07:40:37.844Z,12.80
2023-03-31T07:43:04.786Z,12.70
2023-03-31T07:45:32.838Z,12.80
2023-03-31T07:47:59.914Z,12.80
2023-03-31T07:50:26.938Z,12.70
2023-03-31T07:52:54.394Z,12.70
2023-03-31T07:55:23.659Z,12.70
2023-03-31T07:57:51.575Z,12.70
2023-03-31T08:00:19.280Z,12.80
2023-03-31T08:02:46.564Z,12.70
2023-03-31T08:05:16.372Z,12.80
2023-03-31T08:07:46.031Z,12.80
2023-03-31T08:10:20.556Z,12.70
2023-03-31T08:12:47.582Z,12.80
2023-03-31T08:15:20.016Z,12.80
2023-03-31T08:17:47.093Z,12.90
2023-03-31T08:20:14.055Z,12.90
2023-03-31T08:22:41.139Z,12.90
2023-03-31T08:25:09.384Z,13.00
2023-03-31T08:27:39.279Z,13.10
2023-03-31T08:30:11.539Z,13.00
2023-03-31T08:32:38.721Z,12.90
2023-03-31T08:35:06.310Z,13.00
2023-03-31T08:37:33.492Z,13.10
2023-03-31T08:40:00.860Z,13.10
2023-03-31T08:42:42.331Z,13.10
2023-03-31T08:45:24.642Z,13.10
2023-03-31T08:47:57.763Z,13.10
2023-03-31T08:50:29.078Z,13.00
2023-03-31T08:53:08.117Z,13.10
2023-03-31T08:55:46.704Z,13.10
2023-03-31T08:58:43.375Z,13.10
2023-03-31T09:01:47.839Z,13.10
2023-03-31T09:04:30.988Z,13.00
2023-03-31T09:07:03.968Z,13.20
2023-03-31T09:09:56.456Z,13.10
2023-03-31T09:12:29.136Z,13.00
2023-03-31T09:15:09.132Z,13.00
2023-03-31T09:17:43.050Z,12.90
2023-03-31T09:20:22.176Z,12.90
2023-03-31T09:23:20.035Z,12.90
2023-03-31T09:25:47.294Z,12.90
2023-03-31T09:28:38.996Z,12.80
2023-03-31T09:31:14.199Z,12.80
2023-03-31T09:33:45.554Z,12.80
2023-03-31T09:36:18.317Z,12.90
2023-03-31T09:38:46.764Z,12.90
2023-03-31T09:41:16.109Z,12.90
2023-03-31T09:43:46.117Z,13.00
2023-03-31T09:46:35.207Z,12.90
2023-03-31T09:49:07.735Z,12.90
2023-03-31T09:51:37.489Z,12.90
2023-03-31T09:54:07.638Z,12.90
2023-03-31T09:56:43.637Z,12.90
2023-03-31T09:59:22.682Z,12.90
2023-03-31T10:01:57.079Z,13.00
2023-03-31T10:04:26.484Z,13.00
2023-03-31T10:06:54.565Z,13.00
2023-03-31T10:09:26.641Z,13.00
2023-03-31T10:12:17.839Z,13.10
2023-03-31T10:14:48.081Z,12.90
2023-03-31T10:17:24.270Z,13.00
2023-03-31T10:19:57.902Z,13.00
2023-03-31T10:22:31.032Z,12.90
2023-03-31T10:25:21.514Z,12.80
2023-03-31T10:27:52.434Z,12.80
2023-03-31T10:30:30.560Z,12.90
2023-03-31T10:35:32.930Z,12.90
2023-03-31T10:38:15.747Z,13.00
2023-03-31T10:40:54.878Z,12.90
2023-03-31T10:43:47.971Z,12.90
2023-03-31T10:46:15.172Z,12.90
2023-03-31T10:48:44.572Z,13.00
2023-03-31T10:51:17.447Z,13.00
2023-03-31T10:53:48.148Z,12.90
2023-03-31T10:56:29.745Z,12.90
2023-03-31T10:59:18.171Z,13.10
2023-03-31T11:02:16.110Z,13.20
2023-03-31T11:04:52.262Z,13.20
2023-03-31T11:07:38.222Z,13.20
2023-03-31T11:10:16.956Z,13.00
2023-03-31T11:13:36.089Z,13.00
2023-03-31T11:16:08.671Z,12.70
2023-03-31T11:18:41.483Z,12.70
2023-03-31T11:21:11.215Z,12.60
2023-03-31T11:23:47.793Z,12.40
2023-03-31T11:26:30.906Z,12.50
2023-03-31T11:29:07.820Z,12.50
2023-03-31T11:32:00.877Z,12.50
2023-03-31T11:34:49.011Z,12.40
2023-03-31T11:37:35.505Z,12.50
2023-03-31T11:40:26.577Z,12.60
2023-03-31T11:42:58.974Z,12.60
2023-03-31T11:45:49.563Z,12.50
2023-03-31T11:48:38.617Z,12.50
2023-03-31T11:51:11.805Z,12.50
2023-03-31T11:53:42.011Z,12.50
2023-03-31T11:56:11.927Z,12.50
2023-03-31T11:58:48.077Z,12.40
2023-03-31T12:01:48.591Z,12.40
2023-03-31T12:04:31.450Z,12.50
2023-03-31T12:07:03.264Z,12.30
2023-03-31T12:10:05.632Z,12.40
2023-03-31T12:12:37.790Z,12.10
2023-03-31T12:15:39.477Z,11.90
2023-03-31T12:18:24.900Z,11.90
2023-03-31T12:20:57.865Z,11.80
2023-03-31T12:23:31.475Z,11.80
2023-03-31T12:26:11.914Z,11.90
2023-03-31T12:28:41.390Z,12.10
2023-03-31T12:31:15.865Z,12.20
2023-03-31T12:33:47.003Z,12.20
2023-03-31T12:36:13.974Z,12.30
2023-03-31T12:38:44.043Z,12.30
2023-03-31T12:41:33.392Z,12.40
2023-03-31T12:44:07.925Z,12.40
2023-03-31T12:47:00.924Z,12.30
2023-03-31T12:49:37.697Z,12.30
2023-03-31T12:52:14.289Z,12.40
2023-03-31T12:54:56.629Z,12.40
2023-03-31T12:57:25.104Z,12.20
2023-03-31T13:00:21.450Z,12.30
2023-03-31T13:02:49.406Z,12.30
2023-03-31T13:05:38.138Z,12.30
2023-03-31T13:08:06.297Z,12.20
2023-03-31T13:10:50.623Z,12.10
2023-03-31T13:13:18.204Z,12.00
2023-03-31T13:15:54.578Z,11.90
2023-03-31T13:18:22.784Z,11.80
2023-03-31T13:23:37.175Z,11.70
2023-03-31T13:26:30.677Z,11.70
2023-03-31T13:29:14.300Z,11.80
2023-03-31T13:32:03.155Z,11.70
2023-03-31T13:34:33.710Z,11.80
2023-03-31T13:37:28.116Z,11.70
2023-03-31T13:39:55.072Z,11.60
2023-03-31T13:42:58.393Z,11.60
2023-03-31T13:45:44.364Z,11.60
2023-03-31T13:48:31.061Z,11.50
2023-03-31T13:51:27.096Z,11.60
2023-03-31T13:54:17.008Z,11.60
2023-03-31T13:56:52.873Z,11.70
2023-03-31T13:59:31.235Z,11.70
2023-03-31T14:02:01.061Z,11.70
2023-03-31T14:04:57.074Z,11.80
2023-03-31T14:07:58.768Z,11.70
2023-03-31T14:10:36.391Z,11.60
2023-03-31T14:13:19.444Z,11.60
2023-03-31T14:15:56.125Z,11.60
2023-03-31T14:18:27.447Z,11.60
2023-03-31T14:21:24.867Z,11.50
2023-03-31T14:23:57.923Z,11.60
2023-03-31T14:26:38.990Z,11.60
2023-03-31T14:29:53.135Z,11.50
2023-03-31T14:32:34.740Z,11.50
2023-03-31T14:35:26.777Z,11.60
2023-03-31T14:37:56.303Z,11.60
2023-03-31T14:40:24.298Z,11.70
2023-03-31T14:42:51.361Z,11.70
2023-03-31T14:45:26.519Z,11.70
2023-03-31T14:47:57.419Z,11.80
2023-03-31T14:50:36.163Z,11.80
2023-03-31T14:53:05.161Z,11.90
2023-03-31T14:55:54.282Z,12.00
2023-03-31T14:58:35.138Z,12.00
2023-03-31T15:01:07.085Z,12.00
2023-03-31T15:03:41.796Z,12.00
2023-03-31T15:06:09.928Z,12.10
2023-03-31T15:08:38.300Z,12.10
2023-03-31T15:11:12.998Z,12.10
2023-03-31T15:13:57.227Z,12.20
2023-03-31T15:16:43.355Z,12.20
2023-03-31T15:19:25.865Z,12.20
2023-03-31T15:22:01.942Z,12.20
2023-03-31T15:24:32.429Z,12.20
2023-03-31T15:27:09.263Z,12.20
2023-03-31T15:29:43.284Z,12.20
2023-03-31T15:32:18.441Z,12.20
2023-03-31T15:34:46.653Z,12.20
2023-03-31T15:37:13.722Z,12.30
2023-03-31T15:39:47.321Z,12.30
2023-03-31T15:42:14.682Z,12.40
2023-03-31T15:44:47.000Z,12.40
2023-03-31T15:47:21.827Z,12.20
2023-03-31T15:50:04.522Z,12.20
2023-03-31T15:52:38.462Z,12.00
2023-03-31T15:55:26.375Z,12.00
2023-03-31T15:57:54.352Z,11.90
2023-03-31T16:01:02.238Z,12.00
2023-03-31T16:03:38.872Z,11.80
2023-03-31T16:06:35.077Z,11.80
2023-03-31T16:09:12.196Z,11.70
2023-03-31T16:11:40.380Z,11.70
2023-03-31T16:14:16.494Z,11.70
2023-03-31T16:17:01.958Z,11.70
2023-03-31T16:19:39.363Z,11.70
2023-03-31T16:22:06.746Z,11.60
2023-03-31T16:24:36.167Z,11.70
2023-03-31T16:27:09.594Z,11.70
2023-03-31T16:29:37.650Z,11.70
2023-03-31T16:32:14.485Z,11.70
2023-03-31T16:34:59.439Z,11.70
2023-03-31T16:37:27.197Z,11.70
2023-03-31T16:39:54.641Z,11.80
2023-03-31T16:42:21.600Z,11.90
2023-03-31T16:44:59.965Z,11.90
2023-03-31T16:47:38.370Z,11.90
2023-03-31T16:50:07.695Z,11.90
2023-03-31T16:52:36.000Z,11.90
2023-03-31T16:55:03.074Z,11.90
2023-03-31T16:57:30.336Z,11.90
2023-03-31T17:02:44.689Z,11.80
2023-03-31T17:05:13.445Z,11.80
2023-03-31T17:07:41.013Z,11.80
2023-03-31T17:10:09.029Z,11.80
2023-03-31T17:12:36.308Z,11.70
2023-03-31T17:15:03.225Z,11.70
2023-03-31T17:17:31.086Z,11.60
2023-03-31T17:19:59.434Z,11.60
2023-03-31T17:22:27.073Z,11.80
2023-03-31T17:24:58.370Z,11.70
2023-03-31T17:27:27.634Z,11.70
2023-03-31T17:29:55.502Z,11.70
2023-03-31T17:32:23.153Z,11.70
2023-03-31T17:34:50.672Z,11.70
2023-03-31T17:37:20.776Z,11.70
2023-03-31T17:39:47.687Z,11.60
2023-03-31T17:42:15.256Z,11.60
2023-03-31T17:44:42.671Z,11.60
2023-03-31T17:47:10.685Z,11.60
2023-03-31T17:49:38.510Z,11.60
2023-03-31T17:52:05.588Z,11.60
2023-03-31T17:54:32.485Z,11.60
2023-03-31T17:57:00.067Z,11.60
2023-03-31T17:59:27.116Z,11.60
2023-03-31T18:01:54.507Z,11.70
2023-03-31T18:04:22.505Z,11.70
2023-03-31T18:06:50.416Z,11.70
2023-03-31T18:09:18.059Z,11.60
2023-03-31T18:11:47.415Z,11.60
2023-03-31T18:14:14.551Z,11.60
2023-03-31T18:16:41.931Z,11.60
2023-03-31T18:19:09.196Z,11.50
2023-03-31T18:21:37.163Z,11.50
2023-03-31T18:24:04.420Z,11.50
2023-03-31T18:26:31.960Z,11.50
2023-03-31T18:28:59.294Z,11.40
2023-03-31T18:31:27.403Z,11.40
2023-03-31T18:33:55.359Z,11.30
2023-03-31T18:36:23.857Z,11.40
2023-03-31T18:38:51.747Z,11.40
2023-03-31T18:41:19.357Z,11.30
2023-03-31T18:43:47.903Z,11.30
2023-03-31T18:46:14.962Z,11.30
2023-03-31T18:48:42.119Z,11.30
2023-03-31T18:51:09.631Z,11.30
2023-03-31T18:53:37.349Z,11.30
2023-03-31T18:56:04.462Z,11.30
2023-03-31T18:58:32.108Z,11.30
2023-03-31T19:01:01.560Z,11.30
2023-03-31T19:03:28.918Z,11.40
2023-03-31T19:06:10.274Z,11.30
2023-03-31T19:08:38.307Z,11.20
2023-03-31T19:11:12.798Z,11.20
2023-03-31T19:13:43.151Z,11.20
2023-03-31T19:16:11.963Z,11.20
2023-03-31T19:18:39.733Z,11.20
2023-03-31T19:21:07.430Z,11.30
2023-03-31T19:23:34.864Z,11.20
2023-03-31T19:26:03.019Z,11.30
2023-03-31T19:28:30.714Z,11.20
2023-03-31T19:30:59.005Z,11.20
2023-03-31T19:33:26.793Z,11.10
2023-03-31T19:35:54.188Z,11.10
2023-03-31T19:38:25.604Z,11.10
2023-03-31T19:40:52.941Z,11.10
2023-03-31T19:43:30.326Z,11.10
2023-03-31T19:45:59.210Z,11.00
2023-03-31T19:48:28.169Z,11.10
2023-03-31T19:50:57.700Z,11.10
2023-03-31T19:53:25.015Z,11.10
2023-03-31T19:56:00.698Z,11.10
2023-03-31T19:58:28.571Z,11.00
2023-03-31T20:00:57.076Z,11.00
2023-03-31T20:03:26.422Z,11.10
2023-03-31T20:06:13.954Z,11.10
2023-03-31T20:08:42.644Z,11.10
2023-03-31T20:11:13.384Z,11.00
2023-03-31T20:13:42.775Z,11.10
2023-03-31T20:16:14.812Z,11.00
2023-03-31T20:18:43.636Z,11.10
2023-03-31T20:21:15.798Z,11.20
2023-03-31T20:23:44.243Z,11.20
2023-03-31T20:26:13.893Z,11.20
2023-03-31T20:28:41.897Z,11.30
2023-03-31T20:31:10.434Z,11.20
2023-03-31T20:33:37.643Z,11.30
2023-03-31T20:36:09.748Z,11.30
2023-03-31T20:38:38.502Z,11.30
2023-03-31T20:41:07.080Z,11.30
2023-03-31T20:43:35.871Z,11.40
2023-03-31T20:46:05.244Z,11.40
2023-03-31T20:48:36.097Z,11.40
2023-03-31T20:51:07.734Z,11.50
2023-03-31T20:53:41.850Z,11.40
2023-03-31T20:56:10.277Z,11.30
2023-03-31T20:58:37.624Z,11.40
2023-03-31T21:01:06.041Z,11.30
2023-03-31T21:03:33.592Z,11.40
2023-03-31T21:06:06.960Z,11.40
2023-03-31T21:08:39.923Z,11.40
2023-03-31T21:11:07.356Z,11.30
2023-03-31T21:13:34.772Z,11.30
2023-03-31T21:16:04.432Z,11.30
2023-03-31T21:18:33.553Z,11.20
2023-03-31T21:21:05.253Z,11.10
2023-03-31T21:23:33.119Z,11.20
2023-03-31T21:26:02.429Z,11.10
2023-03-31T21:28:31.736Z,11.10
2023-03-31T21:31:03.237Z,11.10
2023-03-31T21:33:31.548Z,11.10
2023-03-31T21:35:58.771Z,11.10
2023-03-31T21:38:27.891Z,11.10
2023-03-31T21:40:56.037Z,11.10
2023-03-31T21:43:24.077Z,11.20
2023-03-31T21:45:53.433Z,11.20
2023-03-31T21:48:26.366Z,11.10
2023-03-31T21:50:54.942Z,11.10
2023-03-31T21:53:23.170Z,11.00
2023-03-31T21:55:52.545Z,11.00
2023-03-31T21:58:19.520Z,11.10
2023-03-31T22:00:47.470Z,11.00
2023-03-31T22:03:26.425Z,11.00
2023-03-31T22:05:55.527Z,10.90
2023-03-31T22:08:22.455Z,11.00
2023-03-31T22:10:53.793Z,11.00
2023-03-31T22:13:25.734Z,11.00
2023-03-31T22:15:53.187Z,10.90
2023-03-31T22:18:22.051Z,10.90
2023-03-31T22:20:50.195Z,10.90
2023-03-31T22:23:17.738Z,11.00
2023-03-31T22:25:44.811Z,10.90
2023-03-31T22:28:12.709Z,10.90
2023-03-31T22:30:39.649Z,10.90
2023-03-31T22:33:06.628Z,11.00
2023-03-31T22:35:33.957Z,11.00
2023-03-31T22:38:01.772Z,11.00
2023-03-31T22:40:30.178Z,11.00
2023-03-31T22:42:58.466Z,11.00
2023-03-31T22:45:25.817Z,10.90
2023-03-31T22:47:52.830Z,11.00
2023-03-31T22:50:19.766Z,11.00
2023-03-31T22:52:46.681Z,10.90
2023-03-31T22:55:13.521Z,10.90
2023-03-31T22:57:40.699Z,10.90
2023-03-31T23:00:09.214Z,10.90
2023-03-31T23:02:36.146Z,10.80
2023-03-31T23:05:03.486Z,10.80
2023-03-31T23:07:30.647Z,10.80
2023-03-31T23:09:57.509Z,10.80
2023-03-31T23:12:28.546Z,10.80
2023-03-31T23:14:55.515Z,10.80
2023-03-31T23:17:24.844Z,10.80
2023-03-31T23:19:51.714Z,10.80
2023-03-31T23:22:19.060Z,10.80
2023-03-31T23:24:48.419Z,10.80
2023-03-31T23:27:15.295Z,10.80
2023-03-31T23:29:42.280Z,10.90
2023-03-31T23:32:09.683Z,10.80
2023-03-31T23:34:41.430Z,10.90
2023-03-31T23:37:13.249Z,10.90
2023-03-31T23:39:40.614Z,10.90
2023-03-31T23:42:08.583Z,11.00
2023-03-31T23:44:38.626Z,10.90
2023-03-31T23:47:05.966Z,10.90
2023-03-31T23:49:33.415Z,10.90
2023-03-31T23:52:00.845Z,10.90
2023-03-31T23:54:27.905Z,11.00
2023-03-31T23:56:55.125Z,11.00
2023-03-31T23:59:22.239Z,11.00
